sensor_id;sensor_type;location;lat;lon;timestamp;P1;durP1;ratioP1;P2;durP2;ratioP2
39400;SDS011;54391;50.000;7.360;2023-12-22T00:00:02;3.65;;;0.70;;
39400;SDS011;54391;50.000;7.360;2023-12-22T00:02:31;2.72;;;0.65;;
39400;SDS011;54391;50.000;7.360;2023-12-22T00:04:59;4.57;;;1.00;;
39400;SDS011;54391;50.000;7.360;2023-12-22T00:07:26;2.45;;;1.00;;
39400;SDS011;54391;50.000;7.360;2023-12-22T00:09:54;3.15;;;1.00;;
39400;SDS011;54391;50.000;7.360;2023-12-22T00:12:23;13.00;;;4.40;;
39400;SDS011;54391;50.000;7.360;2023-12-22T00:14:50;3.78;;;0.77;;
39400;SDS011;54391;50.000;7.360;2023-12-22T00:17:18;4.32;;;0.88;;
39400;SDS011;54391;50.000;7.360;2023-12-22T00:19:45;4.25;;;0.70;;
39400;SDS011;54391;50.000;7.360;2023-12-22T00:22:13;2.60;;;0.90;;
39400;SDS011;54391;50.000;7.360;2023-12-22T00:24:40;1.98;;;0.60;;
39400;SDS011;54391;50.000;7.360;2023-12-22T00:27:08;5.18;;;1.73;;
39400;SDS011;54391;50.000;7.360;2023-12-22T00:29:37;3.65;;;0.85;;
39400;SDS011;54391;50.000;7.360;2023-12-22T00:32:04;1.25;;;0.57;;
39400;SDS011;54391;50.000;7.360;2023-12-22T00:34:34;1.30;;;0.60;;
39400;SDS011;54391;50.000;7.360;2023-12-22T00:37:02;2.88;;;0.75;;
39400;SDS011;54391;50.000;7.360;2023-12-22T00:39:29;2.10;;;0.50;;
39400;SDS011;54391;50.000;7.360;2023-12-22T00:41:56;5.38;;;1.20;;
39400;SDS011;54391;50.000;7.360;2023-12-22T00:44:24;4.18;;;1.00;;
39400;SDS011;54391;50.000;7.360;2023-12-22T00:46:54;4.32;;;1.33;;
39400;SDS011;54391;50.000;7.360;2023-12-22T00:49:21;4.90;;;0.70;;
39400;SDS011;54391;50.000;7.360;2023-12-22T00:51:49;3.65;;;0.80;;
39400;SDS011;54391;50.000;7.360;2023-12-22T00:54:16;3.53;;;1.10;;
39400;SDS011;54391;50.000;7.360;2023-12-22T00:56:44;7.68;;;1.05;;
39400;SDS011;54391;50.000;7.360;2023-12-22T00:59:11;7.05;;;1.05;;
39400;SDS011;54391;50.000;7.360;2023-12-22T01:01:39;3.30;;;1.58;;
39400;SDS011;54391;50.000;7.360;2023-12-22T01:04:07;5.07;;;0.90;;
39400;SDS011;54391;50.000;7.360;2023-12-22T01:06:36;2.70;;;1.95;;
39400;SDS011;54391;50.000;7.360;2023-12-22T01:09:04;1.40;;;0.60;;
39400;SDS011;54391;50.000;7.360;2023-12-22T01:11:32;7.70;;;1.20;;
39400;SDS011;54391;50.000;7.360;2023-12-22T01:13:59;2.38;;;0.80;;
39400;SDS011;54391;50.000;7.360;2023-12-22T01:16:27;4.45;;;1.20;;
39400;SDS011;54391;50.000;7.360;2023-12-22T01:18:55;2.45;;;0.63;;
39400;SDS011;54391;50.000;7.360;2023-12-22T01:21:24;5.95;;;1.05;;
39400;SDS011;54391;50.000;7.360;2023-12-22T01:23:51;4.38;;;1.27;;
39400;SDS011;54391;50.000;7.360;2023-12-22T01:26:19;3.80;;;0.60;;
39400;SDS011;54391;50.000;7.360;2023-12-22T01:28:46;4.95;;;0.90;;
39400;SDS011;54391;50.000;7.360;2023-12-22T01:31:14;3.50;;;0.80;;
39400;SDS011;54391;50.000;7.360;2023-12-22T01:33:41;5.45;;;1.27;;
39400;SDS011;54391;50.000;7.360;2023-12-22T01:36:09;4.57;;;0.73;;
39400;SDS011;54391;50.000;7.360;2023-12-22T01:38:38;2.33;;;0.80;;
39400;SDS011;54391;50.000;7.360;2023-12-22T01:41:05;1.95;;;0.77;;
39400;SDS011;54391;50.000;7.360;2023-12-22T01:43:34;2.97;;;0.80;;
39400;SDS011;54391;50.000;7.360;2023-12-22T01:46:01;2.28;;;0.82;;
39400;SDS011;54391;50.000;7.360;2023-12-22T01:48:29;2.13;;;0.90;;
39400;SDS011;54391;50.000;7.360;2023-12-22T01:50:57;3.38;;;0.70;;
39400;SDS011;54391;50.000;7.360;2023-12-22T01:53:25;3.53;;;0.80;;
39400;SDS011;54391;50.000;7.360;2023-12-22T01:55:55;3.30;;;0.73;;
39400;SDS011;54391;50.000;7.360;2023-12-22T01:58:23;2.25;;;0.60;;
39400;SDS011;54391;50.000;7.360;2023-12-22T02:00:51;5.85;;;1.55;;
39400;SDS011;54391;50.000;7.360;2023-12-22T02:03:19;8.13;;;1.63;;
39400;SDS011;54391;50.000;7.360;2023-12-22T02:05:47;1.98;;;0.63;;
39400;SDS011;54391;50.000;7.360;2023-12-22T02:08:15;2.35;;;0.57;;
39400;SDS011;54391;50.000;7.360;2023-12-22T02:10:44;5.30;;;0.77;;
39400;SDS011;54391;50.000;7.360;2023-12-22T02:13:13;3.53;;;0.68;;
39400;SDS011;54391;50.000;7.360;2023-12-22T02:15:41;4.22;;;0.55;;
39400;SDS011;54391;50.000;7.360;2023-12-22T02:18:09;4.82;;;1.33;;
39400;SDS011;54391;50.000;7.360;2023-12-22T02:20:38;3.17;;;0.70;;
39400;SDS011;54391;50.000;7.360;2023-12-22T02:23:07;6.57;;;1.20;;
39400;SDS011;54391;50.000;7.360;2023-12-22T02:25:34;2.88;;;0.90;;
39400;SDS011;54391;50.000;7.360;2023-12-22T02:28:03;3.50;;;1.08;;
39400;SDS011;54391;50.000;7.360;2023-12-22T02:30:32;2.30;;;0.45;;
39400;SDS011;54391;50.000;7.360;2023-12-22T02:33:05;2.45;;;0.60;;
39400;SDS011;54391;50.000;7.360;2023-12-22T02:35:35;3.72;;;0.52;;
39400;SDS011;54391;50.000;7.360;2023-12-22T02:38:03;2.60;;;0.60;;
39400;SDS011;54391;50.000;7.360;2023-12-22T02:40:33;5.03;;;0.90;;
39400;SDS011;54391;50.000;7.360;2023-12-22T02:43:01;2.75;;;0.50;;
39400;SDS011;54391;50.000;7.360;2023-12-22T02:45:28;3.45;;;0.93;;
39400;SDS011;54391;50.000;7.360;2023-12-22T02:47:57;4.50;;;1.20;;
39400;SDS011;54391;50.000;7.360;2023-12-22T02:50:24;4.00;;;0.93;;
39400;SDS011;54391;50.000;7.360;2023-12-22T02:52:52;5.70;;;0.98;;
39400;SDS011;54391;50.000;7.360;2023-12-22T02:55:19;3.75;;;1.00;;
39400;SDS011;54391;50.000;7.360;2023-12-22T02:57:48;4.50;;;1.00;;
39400;SDS011;54391;50.000;7.360;2023-12-22T03:00:16;3.03;;;1.00;;
39400;SDS011;54391;50.000;7.360;2023-12-22T03:02:43;4.07;;;0.90;;
39400;SDS011;54391;50.000;7.360;2023-12-22T03:05:11;6.75;;;1.08;;
39400;SDS011;54391;50.000;7.360;2023-12-22T03:07:38;9.75;;;2.90;;
39400;SDS011;54391;50.000;7.360;2023-12-22T03:10:06;3.40;;;0.93;;
39400;SDS011;54391;50.000;7.360;2023-12-22T03:12:34;5.50;;;0.90;;
39400;SDS011;54391;50.000;7.360;2023-12-22T03:15:03;5.40;;;1.35;;
39400;SDS011;54391;50.000;7.360;2023-12-22T03:17:30;3.50;;;0.77;;
39400;SDS011;54391;50.000;7.360;2023-12-22T03:19:58;3.70;;;1.38;;
39400;SDS011;54391;50.000;7.360;2023-12-22T03:22:25;8.25;;;1.50;;
39400;SDS011;54391;50.000;7.360;2023-12-22T03:24:53;5.95;;;1.45;;
39400;SDS011;54391;50.000;7.360;2023-12-22T03:27:20;8.20;;;1.38;;
39400;SDS011;54391;50.000;7.360;2023-12-22T03:29:48;4.22;;;1.27;;
39400;SDS011;54391;50.000;7.360;2023-12-22T03:32:17;5.15;;;1.05;;
39400;SDS011;54391;50.000;7.360;2023-12-22T03:34:44;8.20;;;1.75;;
39400;SDS011;54391;50.000;7.360;2023-12-22T03:37:12;5.65;;;2.15;;
39400;SDS011;54391;50.000;7.360;2023-12-22T03:39:39;8.05;;;1.67;;
39400;SDS011;54391;50.000;7.360;2023-12-22T03:42:07;3.50;;;1.25;;
39400;SDS011;54391;50.000;7.360;2023-12-22T03:44:34;4.90;;;1.20;;
39400;SDS011;54391;50.000;7.360;2023-12-22T03:47:02;6.68;;;1.70;;
39400;SDS011;54391;50.000;7.360;2023-12-22T03:49:31;9.93;;;1.50;;
39400;SDS011;54391;50.000;7.360;2023-12-22T03:51:58;5.93;;;0.95;;
39400;SDS011;54391;50.000;7.360;2023-12-22T03:54:26;4.03;;;1.17;;
39400;SDS011;54391;50.000;7.360;2023-12-22T03:56:53;4.28;;;1.35;;
39400;SDS011;54391;50.000;7.360;2023-12-22T03:59:20;5.30;;;1.55;;
39400;SDS011;54391;50.000;7.360;2023-12-22T04:01:51;7.65;;;1.23;;
39400;SDS011;54391;50.000;7.360;2023-12-22T04:04:20;4.90;;;1.48;;
39400;SDS011;54391;50.000;7.360;2023-12-22T04:06:49;7.10;;;1.40;;
39400;SDS011;54391;50.000;7.360;2023-12-22T04:09:17;4.97;;;1.40;;
39400;SDS011;54391;50.000;7.360;2023-12-22T04:11:45;4.28;;;0.90;;
39400;SDS011;54391;50.000;7.360;2023-12-22T04:14:12;9.07;;;1.00;;
39400;SDS011;54391;50.000;7.360;2023-12-22T04:16:40;8.57;;;1.23;;
39400;SDS011;54391;50.000;7.360;2023-12-22T04:19:07;3.42;;;0.65;;
39400;SDS011;54391;50.000;7.360;2023-12-22T04:21:35;1.15;;;0.35;;
39400;SDS011;54391;50.000;7.360;2023-12-22T04:24:04;1.23;;;0.63;;
39400;SDS011;54391;50.000;7.360;2023-12-22T04:26:32;4.10;;;0.80;;
39400;SDS011;54391;50.000;7.360;2023-12-22T04:28:59;5.43;;;0.40;;
39400;SDS011;54391;50.000;7.360;2023-12-22T04:31:27;1.85;;;0.40;;
39400;SDS011;54391;50.000;7.360;2023-12-22T04:33:54;4.32;;;0.50;;
39400;SDS011;54391;50.000;7.360;2023-12-22T04:36:22;6.28;;;0.50;;
39400;SDS011;54391;50.000;7.360;2023-12-22T04:38:49;0.75;;;0.43;;
39400;SDS011;54391;50.000;7.360;2023-12-22T04:41:18;4.40;;;0.75;;
39400;SDS011;54391;50.000;7.360;2023-12-22T04:43:46;0.73;;;0.40;;
39400;SDS011;54391;50.000;7.360;2023-12-22T04:46:13;2.35;;;0.65;;
39400;SDS011;54391;50.000;7.360;2023-12-22T04:48:40;1.67;;;0.50;;
39400;SDS011;54391;50.000;7.360;2023-12-22T04:51:08;2.10;;;0.40;;
39400;SDS011;54391;50.000;7.360;2023-12-22T04:53:35;1.90;;;0.50;;
39400;SDS011;54391;50.000;7.360;2023-12-22T04:56:03;0.73;;;0.40;;
39400;SDS011;54391;50.000;7.360;2023-12-22T04:58:32;1.25;;;0.40;;
39400;SDS011;54391;50.000;7.360;2023-12-22T05:00:59;3.42;;;0.60;;
39400;SDS011;54391;50.000;7.360;2023-12-22T05:03:27;3.90;;;0.68;;
39400;SDS011;54391;50.000;7.360;2023-12-22T05:05:54;2.47;;;0.93;;
39400;SDS011;54391;50.000;7.360;2023-12-22T05:08:22;5.45;;;0.93;;
39400;SDS011;54391;50.000;7.360;2023-12-22T05:10:49;2.92;;;0.88;;
39400;SDS011;54391;50.000;7.360;2023-12-22T05:13:17;4.18;;;0.80;;
39400;SDS011;54391;50.000;7.360;2023-12-22T05:15:46;7.07;;;1.10;;
39400;SDS011;54391;50.000;7.360;2023-12-22T05:18:13;3.35;;;1.08;;
39400;SDS011;54391;50.000;7.360;2023-12-22T05:20:41;4.65;;;1.17;;
39400;SDS011;54391;50.000;7.360;2023-12-22T05:23:09;5.88;;;1.23;;
39400;SDS011;54391;50.000;7.360;2023-12-22T05:25:36;9.63;;;3.22;;
39400;SDS011;54391;50.000;7.360;2023-12-22T05:28:04;9.23;;;1.73;;
39400;SDS011;54391;50.000;7.360;2023-12-22T05:30:31;4.50;;;1.15;;
39400;SDS011;54391;50.000;7.360;2023-12-22T05:33:00;6.22;;;1.63;;
39400;SDS011;54391;50.000;7.360;2023-12-22T05:35:27;7.25;;;2.13;;
39400;SDS011;54391;50.000;7.360;2023-12-22T05:37:55;6.80;;;1.20;;
39400;SDS011;54391;50.000;7.360;2023-12-22T05:40:22;5.22;;;1.63;;
39400;SDS011;54391;50.000;7.360;2023-12-22T05:42:50;4.60;;;1.50;;
39400;SDS011;54391;50.000;7.360;2023-12-22T05:45:17;3.50;;;1.05;;
39400;SDS011;54391;50.000;7.360;2023-12-22T05:47:45;7.45;;;2.20;;
39400;SDS011;54391;50.000;7.360;2023-12-22T05:50:14;3.92;;;1.02;;
39400;SDS011;54391;50.000;7.360;2023-12-22T05:52:42;8.73;;;1.75;;
39400;SDS011;54391;50.000;7.360;2023-12-22T05:55:10;2.65;;;0.95;;
39400;SDS011;54391;50.000;7.360;2023-12-22T05:57:37;3.45;;;1.00;;
39400;SDS011;54391;50.000;7.360;2023-12-22T06:00:05;7.40;;;1.40;;
39400;SDS011;54391;50.000;7.360;2023-12-22T06:02:35;7.07;;;1.38;;
39400;SDS011;54391;50.000;7.360;2023-12-22T06:05:02;4.85;;;1.20;;
39400;SDS011;54391;50.000;7.360;2023-12-22T06:07:31;5.55;;;1.30;;
39400;SDS011;54391;50.000;7.360;2023-12-22T06:09:59;2.97;;;1.10;;
39400;SDS011;54391;50.000;7.360;2023-12-22T06:12:26;5.72;;;1.25;;
39400;SDS011;54391;50.000;7.360;2023-12-22T06:14:54;7.75;;;1.58;;
39400;SDS011;54391;50.000;7.360;2023-12-22T06:17:21;6.07;;;1.10;;
39400;SDS011;54391;50.000;7.360;2023-12-22T06:19:49;6.30;;;2.20;;
39400;SDS011;54391;50.000;7.360;2023-12-22T06:22:16;4.65;;;1.05;;
39400;SDS011;54391;50.000;7.360;2023-12-22T06:24:45;2.72;;;0.85;;
39400;SDS011;54391;50.000;7.360;2023-12-22T06:27:13;5.22;;;1.08;;
39400;SDS011;54391;50.000;7.360;2023-12-22T06:29:40;4.15;;;1.13;;
39400;SDS011;54391;50.000;7.360;2023-12-22T06:32:07;9.60;;;1.48;;
39400;SDS011;54391;50.000;7.360;2023-12-22T06:34:35;7.72;;;1.15;;
39400;SDS011;54391;50.000;7.360;2023-12-22T06:37:02;4.45;;;1.17;;
39400;SDS011;54391;50.000;7.360;2023-12-22T06:39:32;5.20;;;0.98;;
39400;SDS011;54391;50.000;7.360;2023-12-22T06:42:01;3.85;;;1.20;;
39400;SDS011;54391;50.000;7.360;2023-12-22T06:44:30;4.05;;;0.98;;
39400;SDS011;54391;50.000;7.360;2023-12-22T06:46:58;5.97;;;1.08;;
39400;SDS011;54391;50.000;7.360;2023-12-22T06:49:25;5.82;;;1.23;;
39400;SDS011;54391;50.000;7.360;2023-12-22T06:51:53;4.85;;;0.65;;
39400;SDS011;54391;50.000;7.360;2023-12-22T06:54:20;4.20;;;0.60;;
39400;SDS011;54391;50.000;7.360;2023-12-22T06:56:48;3.35;;;0.70;;
39400;SDS011;54391;50.000;7.360;2023-12-22T06:59:17;3.90;;;0.63;;
39400;SDS011;54391;50.000;7.360;2023-12-22T07:01:45;3.80;;;0.95;;
39400;SDS011;54391;50.000;7.360;2023-12-22T07:04:12;4.50;;;0.90;;
39400;SDS011;54391;50.000;7.360;2023-12-22T07:06:40;1.13;;;0.50;;
39400;SDS011;54391;50.000;7.360;2023-12-22T07:11:54;1.83;;;0.40;;
39400;SDS011;54391;50.000;7.360;2023-12-22T07:14:23;1.92;;;0.57;;
39400;SDS011;54391;50.000;7.360;2023-12-22T07:16:50;5.65;;;1.63;;
39400;SDS011;54391;50.000;7.360;2023-12-22T07:19:18;3.85;;;0.60;;
39400;SDS011;54391;50.000;7.360;2023-12-22T07:21:45;1.88;;;0.57;;
39400;SDS011;54391;50.000;7.360;2023-12-22T07:24:13;2.08;;;0.50;;
39400;SDS011;54391;50.000;7.360;2023-12-22T07:26:41;4.85;;;0.50;;
39400;SDS011;54391;50.000;7.360;2023-12-22T07:29:09;2.58;;;0.60;;
39400;SDS011;54391;50.000;7.360;2023-12-22T07:31:38;1.70;;;0.35;;
39400;SDS011;54391;50.000;7.360;2023-12-22T07:34:05;3.17;;;0.60;;
39400;SDS011;54391;50.000;7.360;2023-12-22T07:36:33;2.05;;;0.77;;
39400;SDS011;54391;50.000;7.360;2023-12-22T07:39:00;2.20;;;0.40;;
39400;SDS011;54391;50.000;7.360;2023-12-22T07:41:28;2.88;;;0.95;;
39400;SDS011;54391;50.000;7.360;2023-12-22T07:43:55;3.28;;;1.10;;
39400;SDS011;54391;50.000;7.360;2023-12-22T07:46:23;2.08;;;0.77;;
39400;SDS011;54391;50.000;7.360;2023-12-22T07:48:52;5.30;;;1.20;;
39400;SDS011;54391;50.000;7.360;2023-12-22T07:51:19;2.17;;;0.50;;
39400;SDS011;54391;50.000;7.360;2023-12-22T07:53:47;3.28;;;0.50;;
39400;SDS011;54391;50.000;7.360;2023-12-22T07:56:15;2.47;;;0.60;;
39400;SDS011;54391;50.000;7.360;2023-12-22T07:58:43;4.80;;;0.80;;
39400;SDS011;54391;50.000;7.360;2023-12-22T08:01:10;8.52;;;3.58;;
39400;SDS011;54391;50.000;7.360;2023-12-22T08:03:38;3.58;;;0.73;;
39400;SDS011;54391;50.000;7.360;2023-12-22T08:06:07;4.55;;;1.30;;
39400;SDS011;54391;50.000;7.360;2023-12-22T08:08:34;5.60;;;1.20;;
39400;SDS011;54391;50.000;7.360;2023-12-22T08:11:02;8.90;;;3.83;;
39400;SDS011;54391;50.000;7.360;2023-12-22T08:13:29;2.70;;;0.90;;
39400;SDS011;54391;50.000;7.360;2023-12-22T08:15:57;3.78;;;1.30;;
39400;SDS011;54391;50.000;7.360;2023-12-22T08:18:24;4.60;;;1.40;;
39400;SDS011;54391;50.000;7.360;2023-12-22T08:20:52;3.75;;;1.48;;
39400;SDS011;54391;50.000;7.360;2023-12-22T08:23:21;5.07;;;1.33;;
39400;SDS011;54391;50.000;7.360;2023-12-22T08:25:48;5.72;;;1.55;;
39400;SDS011;54391;50.000;7.360;2023-12-22T08:28:16;5.72;;;1.30;;
39400;SDS011;54391;50.000;7.360;2023-12-22T08:30:43;3.97;;;1.33;;
39400;SDS011;54391;50.000;7.360;2023-12-22T08:33:10;13.73;;;4.68;;
39400;SDS011;54391;50.000;7.360;2023-12-22T08:35:38;7.90;;;1.92;;
39400;SDS011;54391;50.000;7.360;2023-12-22T08:38:06;9.27;;;2.78;;
39400;SDS011;54391;50.000;7.360;2023-12-22T08:40:34;5.47;;;1.90;;
39400;SDS011;54391;50.000;7.360;2023-12-22T08:43:02;10.68;;;2.92;;
39400;SDS011;54391;50.000;7.360;2023-12-22T08:45:31;15.63;;;5.10;;
39400;SDS011;54391;50.000;7.360;2023-12-22T08:47:59;8.35;;;2.03;;
39400;SDS011;54391;50.000;7.360;2023-12-22T08:50:27;8.90;;;2.30;;
39400;SDS011;54391;50.000;7.360;2023-12-22T08:52:55;7.65;;;2.65;;
39400;SDS011;54391;50.000;7.360;2023-12-22T08:55:22;12.43;;;4.85;;
39400;SDS011;54391;50.000;7.360;2023-12-22T08:57:51;6.25;;;1.90;;
39400;SDS011;54391;50.000;7.360;2023-12-22T09:00:19;8.88;;;2.90;;
39400;SDS011;54391;50.000;7.360;2023-12-22T09:02:46;11.40;;;3.00;;
39400;SDS011;54391;50.000;7.360;2023-12-22T09:05:14;11.77;;;4.90;;
39400;SDS011;54391;50.000;7.360;2023-12-22T09:07:43;12.60;;;6.90;;
39400;SDS011;54391;50.000;7.360;2023-12-22T09:10:11;16.13;;;5.55;;
39400;SDS011;54391;50.000;7.360;2023-12-22T09:12:38;16.13;;;5.47;;
39400;SDS011;54391;50.000;7.360;2023-12-22T09:15:09;9.90;;;2.28;;
39400;SDS011;54391;50.000;7.360;2023-12-22T09:17:36;7.03;;;2.65;;
39400;SDS011;54391;50.000;7.360;2023-12-22T09:20:04;5.00;;;1.63;;
39400;SDS011;54391;50.000;7.360;2023-12-22T09:22:33;9.13;;;2.17;;
39400;SDS011;54391;50.000;7.360;2023-12-22T09:25:00;10.05;;;5.85;;
39400;SDS011;54391;50.000;7.360;2023-12-22T09:27:28;9.27;;;1.83;;
39400;SDS011;54391;50.000;7.360;2023-12-22T09:29:55;7.20;;;2.22;;
39400;SDS011;54391;50.000;7.360;2023-12-22T09:32:24;10.50;;;5.03;;
39400;SDS011;54391;50.000;7.360;2023-12-22T09:34:51;15.25;;;5.25;;
39400;SDS011;54391;50.000;7.360;2023-12-22T09:37:20;11.73;;;4.65;;
39400;SDS011;54391;50.000;7.360;2023-12-22T09:39:48;13.07;;;3.83;;
39400;SDS011;54391;50.000;7.360;2023-12-22T09:42:16;10.95;;;2.08;;
39400;SDS011;54391;50.000;7.360;2023-12-22T09:44:43;4.43;;;1.42;;
39400;SDS011;54391;50.000;7.360;2023-12-22T09:47:13;5.60;;;2.08;;
39400;SDS011;54391;50.000;7.360;2023-12-22T09:49:43;10.02;;;3.95;;
39400;SDS011;54391;50.000;7.360;2023-12-22T09:52:10;10.77;;;2.83;;
39400;SDS011;54391;50.000;7.360;2023-12-22T09:54:38;13.10;;;2.83;;
39400;SDS011;54391;50.000;7.360;2023-12-22T09:57:06;7.75;;;2.28;;
39400;SDS011;54391;50.000;7.360;2023-12-22T09:59:33;13.77;;;4.18;;
39400;SDS011;54391;50.000;7.360;2023-12-22T10:02:01;6.30;;;1.73;;
39400;SDS011;54391;50.000;7.360;2023-12-22T10:04:29;7.80;;;1.90;;
39400;SDS011;54391;50.000;7.360;2023-12-22T10:06:58;8.07;;;2.22;;
39400;SDS011;54391;50.000;7.360;2023-12-22T10:09:27;6.57;;;1.98;;
39400;SDS011;54391;50.000;7.360;2023-12-22T10:11:55;8.52;;;1.80;;
39400;SDS011;54391;50.000;7.360;2023-12-22T10:14:23;7.57;;;1.30;;
39400;SDS011;54391;50.000;7.360;2023-12-22T10:16:51;7.05;;;1.30;;
39400;SDS011;54391;50.000;7.360;2023-12-22T10:19:19;7.70;;;1.83;;
39400;SDS011;54391;50.000;7.360;2023-12-22T10:21:47;7.13;;;1.45;;
39400;SDS011;54391;50.000;7.360;2023-12-22T10:27:03;6.47;;;2.10;;
39400;SDS011;54391;50.000;7.360;2023-12-22T10:29:31;7.47;;;1.85;;
39400;SDS011;54391;50.000;7.360;2023-12-22T10:32:00;6.00;;;2.00;;
39400;SDS011;54391;50.000;7.360;2023-12-22T10:34:29;7.68;;;1.52;;
39400;SDS011;54391;50.000;7.360;2023-12-22T10:36:56;6.63;;;2.63;;
39400;SDS011;54391;50.000;7.360;2023-12-22T10:39:26;4.40;;;1.40;;
39400;SDS011;54391;50.000;7.360;2023-12-22T10:41:54;10.07;;;4.80;;
39400;SDS011;54391;50.000;7.360;2023-12-22T10:44:24;5.53;;;0.90;;
39400;SDS011;54391;50.000;7.360;2023-12-22T10:46:52;4.07;;;1.23;;
39400;SDS011;54391;50.000;7.360;2023-12-22T10:49:20;5.55;;;1.08;;
39400;SDS011;54391;50.000;7.360;2023-12-22T10:51:48;5.60;;;1.73;;
39400;SDS011;54391;50.000;7.360;2023-12-22T10:54:16;4.82;;;0.90;;
39400;SDS011;54391;50.000;7.360;2023-12-22T10:56:42;4.40;;;1.08;;
39400;SDS011;54391;50.000;7.360;2023-12-22T10:59:10;4.75;;;1.17;;
39400;SDS011;54391;50.000;7.360;2023-12-22T11:01:39;4.00;;;1.33;;
39400;SDS011;54391;50.000;7.360;2023-12-22T11:04:07;3.40;;;1.10;;
39400;SDS011;54391;50.000;7.360;2023-12-22T11:06:35;4.82;;;2.00;;
39400;SDS011;54391;50.000;7.360;2023-12-22T11:09:03;5.38;;;1.05;;
39400;SDS011;54391;50.000;7.360;2023-12-22T11:11:34;3.28;;;0.73;;
39400;SDS011;54391;50.000;7.360;2023-12-22T11:14:02;3.08;;;0.63;;
39400;SDS011;54391;50.000;7.360;2023-12-22T11:16:30;2.50;;;0.50;;
39400;SDS011;54391;50.000;7.360;2023-12-22T11:19:01;1.40;;;0.55;;
39400;SDS011;54391;50.000;7.360;2023-12-22T11:21:29;2.53;;;0.40;;
39400;SDS011;54391;50.000;7.360;2023-12-22T11:23:57;1.60;;;0.73;;
39400;SDS011;54391;50.000;7.360;2023-12-22T11:26:26;2.40;;;0.60;;
39400;SDS011;54391;50.000;7.360;2023-12-22T11:28:53;3.15;;;1.00;;
39400;SDS011;54391;50.000;7.360;2023-12-22T11:31:22;2.92;;;0.70;;
39400;SDS011;54391;50.000;7.360;2023-12-22T11:33:50;3.47;;;0.68;;
39400;SDS011;54391;50.000;7.360;2023-12-22T11:36:19;3.10;;;0.80;;
39400;SDS011;54391;50.000;7.360;2023-12-22T11:38:47;2.50;;;1.02;;
39400;SDS011;54391;50.000;7.360;2023-12-22T11:41:16;2.03;;;0.60;;
39400;SDS011;54391;50.000;7.360;2023-12-22T11:43:44;2.97;;;0.60;;
39400;SDS011;54391;50.000;7.360;2023-12-22T11:46:11;1.52;;;0.50;;
39400;SDS011;54391;50.000;7.360;2023-12-22T11:48:46;1.85;;;0.32;;
39400;SDS011;54391;50.000;7.360;2023-12-22T11:51:14;1.85;;;0.60;;
39400;SDS011;54391;50.000;7.360;2023-12-22T11:53:43;1.40;;;0.35;;
39400;SDS011;54391;50.000;7.360;2023-12-22T11:56:11;2.10;;;0.50;;
39400;SDS011;54391;50.000;7.360;2023-12-22T11:58:39;0.70;;;0.25;;
39400;SDS011;54391;50.000;7.360;2023-12-22T12:01:08;0.60;;;0.20;;
39400;SDS011;54391;50.000;7.360;2023-12-22T12:03:36;0.55;;;0.22;;
39400;SDS011;54391;50.000;7.360;2023-12-22T12:06:13;0.35;;;0.10;;
39400;SDS011;54391;50.000;7.360;2023-12-22T12:08:43;0.75;;;0.10;;
39400;SDS011;54391;50.000;7.360;2023-12-22T12:11:10;0.77;;;0.10;;
39400;SDS011;54391;50.000;7.360;2023-12-22T12:13:41;0.95;;;0.20;;
39400;SDS011;54391;50.000;7.360;2023-12-22T12:16:10;0.57;;;0.20;;
39400;SDS011;54391;50.000;7.360;2023-12-22T12:18:38;0.73;;;0.20;;
39400;SDS011;54391;50.000;7.360;2023-12-22T12:21:06;4.30;;;0.45;;
39400;SDS011;54391;50.000;7.360;2023-12-22T12:23:34;1.02;;;0.20;;
39400;SDS011;54391;50.000;7.360;2023-12-22T12:26:04;1.25;;;0.15;;
39400;SDS011;54391;50.000;7.360;2023-12-22T12:28:33;0.30;;;0.10;;
39400;SDS011;54391;50.000;7.360;2023-12-22T12:31:02;0.43;;;0.05;;
39400;SDS011;54391;50.000;7.360;2023-12-22T12:33:30;0.00;;;0.00;;
39400;SDS011;54391;50.000;7.360;2023-12-22T12:35:58;0.55;;;0.15;;
39400;SDS011;54391;50.000;7.360;2023-12-22T12:38:29;0.32;;;0.10;;
39400;SDS011;54391;50.000;7.360;2023-12-22T12:41:01;0.30;;;0.00;;
39400;SDS011;54391;50.000;7.360;2023-12-22T12:43:32;0.95;;;0.10;;
39400;SDS011;54391;50.000;7.360;2023-12-22T12:46:03;0.20;;;0.10;;
39400;SDS011;54391;50.000;7.360;2023-12-22T12:48:31;0.43;;;0.30;;
39400;SDS011;54391;50.000;7.360;2023-12-22T12:51:01;0.30;;;0.20;;
39400;SDS011;54391;50.000;7.360;2023-12-22T12:53:29;0.10;;;0.08;;
39400;SDS011;54391;50.000;7.360;2023-12-22T12:55:57;0.55;;;0.30;;
39400;SDS011;54391;50.000;7.360;2023-12-22T12:58:27;0.57;;;0.10;;
39400;SDS011;54391;50.000;7.360;2023-12-22T13:01:04;0.57;;;0.25;;
39400;SDS011;54391;50.000;7.360;2023-12-22T13:03:32;0.60;;;0.30;;
39400;SDS011;54391;50.000;7.360;2023-12-22T13:06:06;0.85;;;0.30;;
39400;SDS011;54391;50.000;7.360;2023-12-22T13:08:34;0.60;;;0.25;;
39400;SDS011;54391;50.000;7.360;2023-12-22T13:11:03;0.80;;;0.45;;
39400;SDS011;54391;50.000;7.360;2023-12-22T13:13:30;0.88;;;0.50;;
39400;SDS011;54391;50.000;7.360;2023-12-22T13:16:08;0.82;;;0.20;;
39400;SDS011;54391;50.000;7.360;2023-12-22T13:18:36;1.27;;;0.45;;
39400;SDS011;54391;50.000;7.360;2023-12-22T13:21:04;0.40;;;0.30;;
39400;SDS011;54391;50.000;7.360;2023-12-22T13:23:32;0.90;;;0.60;;
39400;SDS011;54391;50.000;7.360;2023-12-22T13:25:59;0.43;;;0.28;;
39400;SDS011;54391;50.000;7.360;2023-12-22T13:28:27;0.30;;;0.20;;
39400;SDS011;54391;50.000;7.360;2023-12-22T13:30:54;0.20;;;0.20;;
39400;SDS011;54391;50.000;7.360;2023-12-22T13:33:23;0.70;;;0.32;;
39400;SDS011;54391;50.000;7.360;2023-12-22T13:35:56;0.90;;;0.20;;
39400;SDS011;54391;50.000;7.360;2023-12-22T13:38:24;1.77;;;0.50;;
39400;SDS011;54391;50.000;7.360;2023-12-22T13:40:51;0.88;;;0.20;;
39400;SDS011;54391;50.000;7.360;2023-12-22T13:43:19;0.85;;;0.20;;
39400;SDS011;54391;50.000;7.360;2023-12-22T13:45:49;0.40;;;0.20;;
39400;SDS011;54391;50.000;7.360;2023-12-22T13:48:21;0.40;;;0.20;;
39400;SDS011;54391;50.000;7.360;2023-12-22T13:51:00;0.95;;;0.30;;
39400;SDS011;54391;50.000;7.360;2023-12-22T13:53:28;0.30;;;0.20;;
39400;SDS011;54391;50.000;7.360;2023-12-22T13:55:56;0.30;;;0.20;;
39400;SDS011;54391;50.000;7.360;2023-12-22T13:58:23;1.45;;;0.20;;
39400;SDS011;54391;50.000;7.360;2023-12-22T14:00:51;0.20;;;0.10;;
39400;SDS011;54391;50.000;7.360;2023-12-22T14:03:19;0.35;;;0.10;;
39400;SDS011;54391;50.000;7.360;2023-12-22T14:05:47;0.47;;;0.10;;
39400;SDS011;54391;50.000;7.360;2023-12-22T14:08:16;0.17;;;0.15;;
39400;SDS011;54391;50.000;7.360;2023-12-22T14:10:46;0.10;;;0.08;;
39400;SDS011;54391;50.000;7.360;2023-12-22T14:13:14;0.55;;;0.10;;
39400;SDS011;54391;50.000;7.360;2023-12-22T14:15:41;1.00;;;0.05;;
39400;SDS011;54391;50.000;7.360;2023-12-22T14:18:09;0.43;;;0.10;;
39400;SDS011;54391;50.000;7.360;2023-12-22T14:20:37;1.27;;;0.00;;
39400;SDS011;54391;50.000;7.360;2023-12-22T14:23:04;0.00;;;0.00;;
39400;SDS011;54391;50.000;7.360;2023-12-22T14:25:33;0.10;;;0.10;;
39400;SDS011;54391;50.000;7.360;2023-12-22T14:28:00;0.35;;;0.10;;
39400;SDS011;54391;50.000;7.360;2023-12-22T14:30:28;0.13;;;0.10;;
39400;SDS011;54391;50.000;7.360;2023-12-22T14:32:55;0.40;;;0.10;;
39400;SDS011;54391;50.000;7.360;2023-12-22T14:35:23;0.63;;;0.20;;
39400;SDS011;54391;50.000;7.360;2023-12-22T14:37:51;0.32;;;0.10;;
39400;SDS011;54391;50.000;7.360;2023-12-22T14:40:18;0.17;;;0.10;;
39400;SDS011;54391;50.000;7.360;2023-12-22T14:42:47;0.63;;;0.10;;
39400;SDS011;54391;50.000;7.360;2023-12-22T14:45:15;0.20;;;0.15;;
39400;SDS011;54391;50.000;7.360;2023-12-22T14:47:42;0.52;;;0.13;;
39400;SDS011;54391;50.000;7.360;2023-12-22T14:50:10;0.68;;;0.20;;
39400;SDS011;54391;50.000;7.360;2023-12-22T14:52:37;0.32;;;0.10;;
39400;SDS011;54391;50.000;7.360;2023-12-22T14:55:05;0.20;;;0.10;;
39400;SDS011;54391;50.000;7.360;2023-12-22T14:57:33;1.27;;;0.10;;